Iver Agile — IBHW — position and weather

sailwx.info

Track history (hours):
 
Tides and Currents Weather Stations Pressure Air Temp Water Temp Dewpoint Dewpoint Depression Visibility Wind Speed Wind Dir Waves Ship Positions

Iver Agile

Last reported at 2015-Sep-03 04:31 UTC. Time now 2015-Sep-04 01:32 UTC.
Position N 37°43' E 009°18'.

Length 110 m; draft 6.6 m.

Type: Tanker. MMSI: 247103700.

Date/timePositionNaut miles runAvg speedWind from/ knotsBaromVisibWave heightAir tempDewpointWater temp
2015-Sep-03 04:31N 37°43' E 009°18'73 2.1
2015-Sep-01 18:07N 36°55' E 010°27'610.7
2015-Sep-01 17:33N 36°60' E 010°31'22 9.9
2015-Sep-01 15:19N 37°14' E 010°53'911.4
2015-Sep-01 14:33N 37°13' E 011°04'1110.7
2015-Sep-01 13:32N 37°12' E 011°17'1010.3
2015-Sep-01 12:34N 37°11' E 011°30'1010.3
2015-Sep-01 11:33N 37°10' E 011°43'2610.7
2015-Sep-01 09:06N 37°07' E 012°15'911.1
2015-Sep-01 08:19N 37°05' E 012°26'1010.6
2015-Sep-01 07:23N 37°03' E 012°38'910.8
2015-Sep-01 06:32N 37°02' E 012°50'1010.6
2015-Sep-01 05:33N 36°60' E 013°02'1110.5
2015-Sep-01 04:32N 36°57' E 013°15'1110.7
2015-Sep-01 03:33N 36°53' E 013°28'1410.7
2015-Sep-01 02:16N 36°49' E 013°44'910.6
2015-Sep-01 01:23N 36°47' E 013°55'1310.9
2015-Sep-01 00:10N 36°43' E 014°11'710.8
2015-Aug-31 23:33N 36°41' E 014°19'1010.5
2015-Aug-31 22:33N 36°38' E 014°31'1010.2
2015-Aug-31 21:33N 36°35' E 014°44'1210.2
2015-Aug-31 20:24N 36°34' E 014°58'1010.5
2015-Aug-31 19:30N 36°35' E 015°10'9 9.6
2015-Aug-31 18:33N 36°37' E 015°21'1110.7
2015-Aug-31 17:33N 36°48' E 015°23'1110.8
2015-Aug-31 16:33N 36°59' E 015°25'1010.0
2015-Aug-31 15:33N 37°07' E 015°19'  
2015-Aug-26 00:27N 37°03' E 016°23'3311.5
2015-Aug-25 21:33N 36°58' E 017°04'1111.4
2015-Aug-25 20:33N 36°56' E 017°18'37311.2
2015-Aug-24 11:14N 36°10' E 024°59'710.5
2015-Aug-24 10:33N 36°09' E 025°08'1010.5
2015-Aug-24 09:33N 36°08' E 025°21'1111.1
2015-Aug-24 08:33N 36°08' E 025°35'1111.3
2015-Aug-24 07:33N 36°09' E 025°49'1111.6
2015-Aug-24 06:33N 36°08' E 026°03'1111.4
2015-Aug-24 05:33N 36°08' E 026°17'  
Track history (hours):
 
Tides and Currents Weather Stations Pressure Air Temp Water Temp Dewpoint Dewpoint Depression Visibility Wind Speed Wind Dir Waves Ship Positions

Iver Agile

Last reported at 2015-Sep-03 04:31 UTC. Time now 2015-Sep-04 01:32 UTC.
Position N 37°43' E 009°18'.

Length 110 m; draft 6.6 m.

Type: Tanker. MMSI: 247103700.

Date/timePositionNaut miles runAvg speedWind from/ knotsBaromVisibWave heightAir tempDewpointWater temp
2015-Sep-03 04:31N 37°43' E 009°18'73 2.1
2015-Sep-01 18:07N 36°55' E 010°27'610.7
2015-Sep-01 17:33N 36°60' E 010°31'22 9.9
2015-Sep-01 15:19N 37°14' E 010°53'911.4
2015-Sep-01 14:33N 37°13' E 011°04'1110.7
2015-Sep-01 13:32N 37°12' E 011°17'1010.3
2015-Sep-01 12:34N 37°11' E 011°30'1010.3
2015-Sep-01 11:33N 37°10' E 011°43'2610.7
2015-Sep-01 09:06N 37°07' E 012°15'911.1
2015-Sep-01 08:19N 37°05' E 012°26'1010.6
2015-Sep-01 07:23N 37°03' E 012°38'910.8
2015-Sep-01 06:32N 37°02' E 012°50'1010.6
2015-Sep-01 05:33N 36°60' E 013°02'1110.5
2015-Sep-01 04:32N 36°57' E 013°15'1110.7
2015-Sep-01 03:33N 36°53' E 013°28'1410.7
2015-Sep-01 02:16N 36°49' E 013°44'910.6
2015-Sep-01 01:23N 36°47' E 013°55'1310.9
2015-Sep-01 00:10N 36°43' E 014°11'710.8
2015-Aug-31 23:33N 36°41' E 014°19'1010.5
2015-Aug-31 22:33N 36°38' E 014°31'1010.2
2015-Aug-31 21:33N 36°35' E 014°44'1210.2
2015-Aug-31 20:24N 36°34' E 014°58'1010.5
2015-Aug-31 19:30N 36°35' E 015°10'9 9.6
2015-Aug-31 18:33N 36°37' E 015°21'1110.7
2015-Aug-31 17:33N 36°48' E 015°23'1110.8
2015-Aug-31 16:33N 36°59' E 015°25'1010.0
2015-Aug-31 15:33N 37°07' E 015°19'  
2015-Aug-26 00:27N 37°03' E 016°23'3311.5
2015-Aug-25 21:33N 36°58' E 017°04'1111.4
2015-Aug-25 20:33N 36°56' E 017°18'37311.2
2015-Aug-24 11:14N 36°10' E 024°59'710.5
2015-Aug-24 10:33N 36°09' E 025°08'1010.5
2015-Aug-24 09:33N 36°08' E 025°21'1111.1
2015-Aug-24 08:33N 36°08' E 025°35'1111.3
2015-Aug-24 07:33N 36°09' E 025°49'1111.6
2015-Aug-24 06:33N 36°08' E 026°03'1111.4
2015-Aug-24 05:33N 36°08' E 026°17'  

Dump ship's entire track history